createdAt,value
2023-11-18T00:04:57.537Z,92.96
2023-11-18T00:09:57.516Z,92.13
2023-11-18T00:14:57.492Z,92.03
2023-11-18T00:19:57.426Z,91.30
2023-11-18T00:24:57.647Z,91.14
2023-11-18T00:29:57.333Z,91.14
2023-11-18T00:34:57.442Z,91.28
2023-11-18T00:39:57.795Z,91.95
2023-11-18T00:44:57.136Z,92.16
2023-11-18T00:49:59.391Z,92.47
2023-11-18T00:54:58.151Z,92.11
2023-11-18T01:00:04.987Z,91.85
2023-11-18T01:04:58.466Z,92.05
2023-11-18T01:09:58.348Z,92.20
2023-11-18T01:15:01.071Z,91.95
2023-11-18T01:19:57.278Z,92.36
2023-11-18T01:24:58.120Z,92.26
2023-11-18T01:29:57.403Z,92.57
2023-11-18T01:34:58.720Z,92.57
2023-11-18T01:39:57.109Z,92.68
2023-11-18T01:44:57.090Z,92.05
2023-11-18T01:49:57.225Z,91.85
2023-11-18T01:54:58.097Z,91.64
2023-11-18T01:59:57.642Z,91.89
2023-11-18T02:04:56.700Z,92.16
2023-11-18T02:09:56.727Z,91.58
2023-11-18T02:14:57.072Z,90.85
2023-11-18T02:20:16.283Z,91.20
2023-11-18T02:25:11.778Z,91.52
2023-11-18T02:29:56.385Z,91.41
2023-11-18T02:34:57.186Z,92.14
2023-11-18T02:39:55.885Z,92.55
2023-11-18T02:44:55.947Z,92.61
2023-11-18T02:49:58.806Z,92.93
2023-11-18T02:54:55.713Z,92.72
2023-11-18T02:59:57.991Z,92.66
2023-11-18T03:04:55.608Z,92.82
2023-11-18T03:09:55.764Z,92.51
2023-11-18T03:14:55.489Z,93.29
2023-11-18T03:19:55.500Z,92.78
2023-11-18T03:24:55.440Z,92.88
2023-11-18T03:29:56.749Z,92.57
2023-11-18T03:34:58.364Z,92.36
2023-11-18T03:39:55.443Z,92.47
2023-11-18T03:44:55.557Z,92.47
2023-11-18T03:49:55.112Z,93.08
2023-11-18T03:54:55.390Z,92.16
2023-11-18T04:00:00.504Z,92.16
2023-11-18T04:04:56.006Z,92.47
2023-11-18T04:09:54.912Z,92.22
2023-11-18T04:14:54.909Z,91.39
2023-11-18T04:19:58.904Z,92.05
2023-11-18T04:24:54.934Z,92.36
2023-11-18T04:29:54.687Z,92.22
2023-11-18T04:34:54.784Z,92.16
2023-11-18T04:39:54.972Z,92.26
2023-11-18T04:44:54.575Z,92.57
2023-11-18T04:49:55.037Z,92.32
2023-11-18T04:54:54.627Z,91.74
2023-11-18T04:59:55.405Z,92.26
2023-11-18T05:04:54.463Z,91.95
2023-11-18T05:09:54.258Z,92.26
2023-11-18T05:14:54.255Z,92.63
2023-11-18T05:19:54.291Z,91.91
2023-11-18T05:24:54.082Z,91.70
2023-11-18T05:29:54.147Z,91.39
2023-11-18T05:34:54.065Z,92.01
2023-11-18T05:39:53.975Z,91.91
2023-11-18T05:44:53.922Z,92.53
2023-11-18T05:49:53.976Z,92.38
2023-11-18T05:54:53.784Z,92.18
2023-11-18T05:59:53.692Z,92.34
2023-11-18T06:04:53.666Z,92.03
2023-11-18T06:09:53.697Z,92.24
2023-11-18T06:14:53.889Z,92.24
2023-11-18T06:19:53.850Z,92.34
2023-11-18T06:24:53.431Z,92.13
2023-11-18T06:29:53.416Z,91.57
2023-11-18T06:34:53.422Z,91.47
2023-11-18T06:39:53.420Z,92.30
2023-11-18T06:46:26.796Z,92.36
2023-11-18T06:51:27.029Z,91.84
2023-11-18T06:56:26.469Z,91.53
2023-11-18T07:01:26.673Z,91.32
2023-11-18T07:06:26.342Z,91.74
2023-11-18T07:11:26.249Z,91.63
2023-11-18T07:16:26.227Z,91.94
2023-11-18T07:21:26.124Z,91.49
2023-11-18T07:26:26.050Z,91.28
2023-11-18T07:31:26.156Z,91.49
2023-11-18T07:36:25.925Z,91.49
2023-11-18T07:41:25.934Z,91.24
2023-11-18T07:46:25.921Z,91.24
2023-11-18T07:51:25.949Z,91.61
2023-11-18T07:56:25.736Z,91.82
2023-11-18T08:01:25.800Z,91.50
2023-11-18T08:06:25.616Z,91.36
2023-11-18T08:11:25.629Z,91.56
2023-11-18T08:16:25.571Z,91.11
2023-11-18T08:21:25.445Z,91.42
2023-11-18T08:26:25.395Z,91.38
2023-11-18T08:31:25.399Z,91.79
2023-11-18T08:36:25.368Z,92.16
2023-11-18T08:41:25.175Z,92.06
2023-11-18T08:46:25.312Z,91.71
2023-11-18T08:51:25.155Z,91.30
2023-11-18T08:56:25.127Z,91.30
2023-11-18T09:01:24.987Z,91.71
2023-11-18T09:06:25.121Z,90.94
2023-11-18T09:11:25.798Z,91.05
2023-11-18T09:16:25.011Z,91.25
2023-11-18T09:21:24.918Z,91.25
2023-11-18T09:26:24.976Z,90.94
2023-11-18T09:31:24.849Z,90.84
2023-11-18T09:36:24.870Z,90.73
2023-11-18T09:41:24.725Z,90.80
2023-11-18T09:46:24.830Z,90.64
2023-11-18T09:51:24.701Z,90.39
2023-11-18T09:56:24.515Z,90.28
2023-11-18T10:01:24.539Z,90.08
2023-11-18T10:06:24.464Z,89.31
2023-11-18T10:11:24.403Z,89.17
2023-11-18T10:16:24.330Z,89.07
2023-11-18T10:21:24.327Z,88.51
2023-11-18T10:26:24.127Z,88.31
2023-11-18T10:31:24.064Z,87.59
2023-11-18T10:36:24.112Z,87.65
2023-11-18T10:41:24.153Z,87.71
2023-11-18T10:46:23.970Z,86.79
2023-11-18T10:51:23.861Z,86.68
2023-11-18T10:56:23.876Z,86.33
2023-11-18T11:01:23.997Z,85.62
2023-11-18T11:06:23.783Z,86.03
2023-11-18T11:11:23.750Z,85.89
2023-11-18T11:16:23.634Z,85.21
2023-11-18T11:21:23.509Z,85.21
2023-11-18T11:26:23.552Z,85.11
2023-11-18T11:31:23.389Z,85.21
2023-11-18T11:36:23.375Z,85.21
2023-11-18T11:41:23.300Z,86.07
2023-11-18T11:46:23.291Z,86.44
2023-11-18T11:51:23.178Z,86.54
2023-11-18T11:56:23.321Z,86.85
2023-11-18T12:01:23.056Z,86.60
2023-11-18T12:06:23.094Z,87.12
2023-11-18T12:11:23.085Z,86.71
2023-11-18T12:16:23.039Z,87.32
2023-11-18T12:21:22.905Z,87.77
2023-11-18T12:26:22.778Z,88.53
2023-11-18T12:31:23.030Z,88.18
2023-11-18T12:36:23.213Z,87.77
2023-11-18T12:41:22.854Z,87.98
2023-11-18T12:46:23.801Z,87.63
2023-11-18T12:51:22.717Z,87.43
2023-11-18T12:56:22.812Z,88.39
2023-11-18T13:01:22.583Z,87.77
2023-11-18T13:06:24.592Z,88.80
2023-11-18T13:11:22.608Z,88.80
2023-11-18T13:16:22.267Z,89.25
2023-11-18T13:21:22.205Z,88.45
2023-11-18T13:26:22.286Z,87.98
2023-11-18T13:31:22.123Z,88.14
2023-11-18T13:36:22.358Z,88.29
2023-11-18T13:41:22.124Z,89.25
2023-11-18T13:46:21.915Z,88.18
2023-11-18T13:51:21.945Z,87.77
2023-11-18T13:56:21.880Z,87.43
2023-11-18T14:01:21.832Z,87.73
2023-11-18T14:06:21.731Z,87.67
2023-11-18T14:11:21.697Z,87.88
2023-11-18T14:16:21.607Z,87.88
2023-11-18T14:21:21.646Z,87.88
2023-11-18T14:26:21.507Z,87.77
2023-11-18T14:31:21.499Z,88.29
2023-11-18T14:36:21.419Z,87.67
2023-11-18T14:41:21.414Z,87.92
2023-11-18T14:46:21.415Z,88.18
2023-11-18T14:51:21.224Z,87.67
2023-11-18T14:56:21.267Z,88.59
2023-11-18T15:01:21.276Z,89.01
2023-11-18T15:06:21.540Z,89.25
2023-11-18T15:11:21.206Z,90.28
2023-11-18T15:16:21.145Z,90.73
2023-11-18T15:21:21.232Z,90.42
2023-11-18T15:26:20.888Z,90.83
2023-11-18T15:31:20.896Z,90.18
2023-11-18T15:36:21.814Z,90.22
2023-11-18T15:41:25.251Z,90.94
2023-11-18T15:46:20.727Z,90.53
2023-11-18T15:51:20.602Z,90.63
2023-11-18T15:56:20.550Z,91.35
2023-11-18T16:01:20.496Z,91.04
2023-11-18T16:06:20.553Z,92.42
2023-11-18T16:11:20.472Z,91.86
2023-11-18T16:16:20.458Z,91.55
2023-11-18T16:21:20.276Z,91.72
2023-11-18T16:26:20.321Z,91.72
2023-11-18T16:31:20.294Z,92.27
2023-11-18T16:36:20.129Z,92.89
2023-11-18T16:41:21.728Z,92.27
2023-11-18T16:46:20.008Z,92.38
2023-11-18T16:51:19.939Z,92.79
2023-11-18T16:56:20.025Z,92.64
2023-11-18T17:01:20.315Z,92.89
2023-11-18T17:06:22.009Z,92.89
2023-11-18T17:11:23.937Z,92.85
2023-11-18T17:16:20.092Z,93.10
2023-11-18T17:21:19.701Z,92.95
2023-11-18T17:26:19.650Z,93.20
2023-11-18T17:31:19.579Z,92.64
2023-11-18T17:36:19.474Z,92.50
2023-11-18T17:41:22.895Z,92.08
2023-11-18T17:46:19.685Z,92.40
2023-11-18T17:51:19.510Z,92.08
2023-11-18T17:56:19.315Z,92.54
2023-11-18T18:01:20.999Z,93.57
2023-11-18T18:06:19.179Z,93.87
2023-11-18T18:11:19.272Z,92.70
2023-11-18T18:16:19.155Z,93.67
2023-11-18T18:21:19.080Z,93.67
2023-11-18T18:26:20.033Z,93.52
2023-11-18T18:31:20.287Z,93.12
2023-11-18T18:36:20.307Z,92.91
2023-11-18T18:41:18.773Z,93.93
2023-11-18T18:46:19.817Z,93.99
2023-11-18T18:51:18.693Z,94.04
2023-11-18T18:56:18.745Z,94.45
2023-11-18T19:01:19.314Z,94.51
2023-11-18T19:06:18.736Z,94.85
2023-11-18T19:11:19.694Z,94.34
2023-11-18T19:16:18.604Z,95.06
2023-11-18T19:21:19.291Z,94.67
2023-11-18T19:26:18.403Z,94.15
2023-11-18T19:31:18.224Z,94.77
2023-11-18T19:36:18.205Z,94.11
2023-11-18T19:41:18.135Z,94.11
2023-11-18T19:46:18.193Z,94.27
2023-11-18T19:51:18.064Z,93.60
2023-11-18T19:56:18.109Z,94.21
2023-11-18T20:01:19.049Z,92.94
2023-11-18T20:06:17.884Z,93.86
2023-11-18T20:11:17.883Z,93.41
2023-11-18T20:16:17.746Z,93.30
2023-11-18T20:21:17.864Z,94.37
2023-11-18T20:26:17.889Z,94.02
2023-11-18T20:31:17.845Z,94.02
2023-11-18T20:36:17.910Z,94.02
2023-11-18T20:41:20.329Z,93.71
2023-11-18T20:46:17.459Z,93.57
2023-11-18T20:51:17.510Z,93.77
2023-11-18T20:56:17.351Z,94.08
2023-11-18T21:01:17.230Z,93.47
2023-11-18T21:06:21.606Z,94.04
2023-11-18T21:11:18.264Z,94.49
2023-11-18T21:16:17.160Z,94.59
2023-11-18T21:21:17.106Z,93.93
2023-11-18T21:26:17.128Z,93.93
2023-11-18T21:31:16.919Z,94.34
2023-11-18T21:36:16.882Z,94.65
2023-11-18T21:41:17.024Z,93.99
2023-11-18T21:46:16.782Z,94.14
2023-11-18T21:51:18.825Z,94.51
2023-11-18T21:56:16.727Z,93.13
2023-11-18T22:01:16.583Z,92.97
2023-11-18T22:06:19.970Z,93.89
2023-11-18T22:11:20.131Z,93.99
2023-11-18T22:16:16.477Z,93.59
2023-11-18T22:21:16.378Z,93.33
2023-11-18T22:26:16.332Z,93.79
2023-11-18T22:31:16.464Z,95.02
2023-11-18T22:36:16.221Z,95.32
2023-11-18T22:41:17.176Z,94.60
2023-11-18T22:46:16.246Z,94.92
2023-11-18T22:51:16.206Z,94.46
2023-11-18T22:56:16.096Z,94.67
2023-11-18T23:01:15.969Z,95.03
2023-11-18T23:06:15.928Z,95.28
2023-11-18T23:11:15.851Z,95.23
2023-11-18T23:16:15.810Z,94.73
2023-11-18T23:21:16.061Z,94.52
2023-11-18T23:26:15.663Z,94.07
2023-11-18T23:31:15.639Z,94.27
2023-11-18T23:36:15.591Z,94.89
2023-11-18T23:41:15.532Z,94.64
2023-11-18T23:46:15.735Z,94.74
2023-11-18T23:51:15.482Z,94.43
2023-11-18T23:56:15.372Z,94.84
